Terminal Aerodrome Forecast
Issued by NWS

Home | Current Version | Previous Version | Text Only | Print | Product List | Glossary On
Versions: 1 2 3 4 5 6 7 8 9 10 11 12
000
FTUS45 KVEF 042320
TAFHND
TAF
KHND 042320Z 0500/0524 18014KT P6SM SCT050 BKN070
     FM050200 20012KT P6SM VCSH BKN060
     FM050600 16009KT P6SM BKN070
     FM051400 19012KT P6SM SCT120
     FM051900 20018KT P6SM SCT250=

USA.gov is the U.S. government's official web portal to all federal, state and local government web resources and services.